Time;durP1;ratioP1;P1;durP2;ratioP2;P2;SDS_P1;SDS_P2;PMS_P1;PMS_P2;Temp;Humidity;BMP_temperature;BMP_pressure;BME280_temperature;BME280_humidity;BME280_pressure;Samples;Min_cycle;Max_cycle;Signal;HPM_P1;HPM_P2
2023/11/14 00:02:01;;;;;;;;;;;;;;;29.72;70.30;101133.00;5089818;27;70154;-34
2023/11/14 00:04:31;;;;;;;;;;;;;;;29.74;70.37;101133.63;5093817;27;66758;-35
2023/11/14 00:07:02;;;;;;;;;;;;;;;29.77;70.74;101138.63;5094574;27;70000;-34
2023/11/14 00:09:32;;;;;;;;;;;;;;;29.81;70.08;101142.59;5095768;27;66763;-34
2023/11/14 00:12:02;;;;;;;;;;;;;;;29.83;70.62;101145.91;5092602;27;69710;-34
2023/11/14 00:14:32;;;;;;;;;;;;;;;29.86;70.83;101157.34;5100262;27;66903;-34
2023/11/14 00:17:02;;;;;;;;;;;;;;;29.90;71.08;101155.91;5090571;27;70109;-34
2023/11/14 00:19:32;;;;;;;;;;;;;;;29.95;70.86;101151.53;5089105;27;67597;-34
2023/11/14 00:22:03;;;;;;;;;;;;;;;29.97;70.41;101154.03;5097911;27;70099;-34
2023/11/14 00:24:33;;;;;;;;;;;;;;;30.01;70.75;101160.69;5092201;27;65565;-35
2023/11/14 00:27:03;;;;;;;;;;;;;;;30.03;70.45;101155.91;5094545;27;70448;-34
2023/11/14 00:29:33;;;;;;;;;;;;;;;30.06;70.33;101155.47;5094200;27;66586;-34
2023/11/14 00:32:03;;;;;;;;;;;;;;;30.07;70.81;101146.34;5079158;27;70481;-35
2023/11/14 00:34:33;;;;;;;;;;;;;;;30.12;70.07;101154.66;5070605;27;67278;-33
2023/11/14 00:37:03;;;;;;;;;;;;;;;30.13;70.46;101156.31;5068533;27;70023;-35
2023/11/14 00:39:33;;;;;;;;;;;;;;;30.15;70.30;101165.06;5086550;27;66623;-35
2023/11/14 00:42:03;;;;;;;;;;;;;;;30.18;70.16;101161.94;5093218;27;69418;-33
2023/11/14 00:44:33;;;;;;;;;;;;;;;30.20;70.26;101167.97;5086953;27;65699;-34
2023/11/14 00:47:03;;;;;;;;;;;;;;;30.22;70.19;101171.31;5092399;27;69284;-33
2023/11/14 00:49:33;;;;;;;;;;;;;;;30.23;70.60;101167.59;5100352;27;65563;-34
2023/11/14 00:52:03;;;;;;;;;;;;;;;30.21;70.32;101169.63;5100756;27;69514;-35
2023/11/14 00:54:33;;;;;;;;;;;;;;;30.22;69.51;101171.31;5100585;27;65235;-35
2023/11/14 00:57:03;;;;;;;;;;;;;;;30.26;67.44;101179.88;5096916;27;69829;-32
2023/11/14 00:59:33;;;;;;;;;;;;;;;30.29;66.10;101182.16;5103601;27;66172;-35
2023/11/14 01:02:06;;;;;;;;;;;;;;;30.33;65.57;101185.28;5102001;27;70727;-33
2023/11/14 01:04:39;;;;;;;;;;;;;;;30.37;64.64;101183.78;5102605;27;66148;-34
2023/11/14 01:07:10;;;;;;;;;;;;;;;30.41;63.97;101188.59;5096348;27;70826;-35
2023/11/14 01:09:40;;;;;;;;;;;;;;;30.44;64.09;101184.63;5102142;27;66099;-34
2023/11/14 01:12:09;;;;;;;;;;;;;;;30.47;63.61;101184.22;5102753;27;70003;-35
2023/11/14 01:14:40;;;;;;;;;;;;;;;30.50;63.47;101189.19;5102612;27;66881;-34
2023/11/14 01:17:10;;;;;;;;;;;;;;;30.54;62.90;101193.16;5091692;27;69670;-35
2023/11/14 01:19:40;;;;;;;;;;;;;;;30.55;62.57;101194.81;5099945;27;66452;-33
2023/11/14 01:22:10;;;;;;;;;;;;;;;30.59;62.93;101208.75;5085042;27;70583;-35
2023/11/14 01:24:39;;;;;;;;;;;;;;;30.60;62.84;101205.84;5079885;27;66014;-33
2023/11/14 01:27:09;;;;;;;;;;;;;;;30.63;62.71;101200.00;5094469;27;70477;-34
2023/11/14 01:29:39;;;;;;;;;;;;;;;30.65;62.46;101197.94;5078589;27;65558;-34
2023/11/14 01:32:08;;;;;;;;;;;;;;;30.67;62.02;101203.97;5079671;27;70150;-34
2023/11/14 01:34:38;;;;;;;;;;;;;;;30.69;62.38;101199.16;5083934;27;65707;-34
2023/11/14 01:37:09;;;;;;;;;;;;;;;30.72;61.97;101206.88;5083476;27;70542;-33
2023/11/14 01:39:42;;;;;;;;;;;;;;;30.73;62.30;101205.84;5083076;27;66452;-34
2023/11/14 01:42:12;;;;;;;;;;;;;;;30.76;61.77;101211.84;5083966;27;69667;-32
2023/11/14 01:44:42;;;;;;;;;;;;;;;30.78;62.15;101212.47;5083103;27;66043;-34
2023/11/14 01:47:12;;;;;;;;;;;;;;;30.80;61.79;101210.44;5082718;27;70722;-33
2023/11/14 01:49:42;;;;;;;;;;;;;;;30.83;61.96;101218.13;5083378;27;65503;-35
2023/11/14 01:52:12;;;;;;;;;;;;;;;30.84;61.76;101220.66;5083305;27;69378;-33
2023/11/14 01:54:42;;;;;;;;;;;;;;;30.86;61.70;101223.94;5070417;27;66569;-35
2023/11/14 01:57:13;;;;;;;;;;;;;;;30.88;61.43;101221.03;5082575;27;69805;-33
2023/11/14 01:59:44;;;;;;;;;;;;;;;30.90;61.66;101216.25;5079243;27;67026;-33
2023/11/14 02:02:17;;;;;;;;;;;;;;;30.93;61.19;101226.66;5076673;28;70376;-33
2023/11/14 02:04:48;;;;;;;;;;;;;;;30.95;61.70;101219.13;5081251;27;66366;-33
2023/11/14 02:07:21;;;;;;;;;;;;;;;30.98;61.37;101232.28;5080518;27;70638;-34
2023/11/14 02:09:51;;;;;;;;;;;;;;;30.99;61.12;101225.81;5083380;27;65315;-34
2023/11/14 02:12:20;;;;;;;;;;;;;;;31.01;61.64;101234.56;5074261;27;69861;-34
2023/11/14 02:14:51;;;;;;;;;;;;;;;31.02;61.28;101219.13;5074567;28;67131;-34
2023/11/14 02:17:21;;;;;;;;;;;;;;;31.04;61.56;101228.72;5082869;27;70419;-33
2023/11/14 02:19:50;;;;;;;;;;;;;;;31.06;61.04;101234.72;5078675;28;65247;-34
2023/11/14 02:22:20;;;;;;;;;;;;;;;31.09;61.53;101230.75;5080638;27;70546;-33
2023/11/14 02:24:55;;;;;;;;;;;;;;;31.11;61.02;101232.22;5081775;28;65917;-33
2023/11/14 02:27:25;;;;;;;;;;;;;;;31.13;61.07;101232.84;5075275;28;70634;-34
2023/11/14 02:29:55;;;;;;;;;;;;;;;31.15;60.79;101236.16;5096011;27;67042;-34
2023/11/14 02:32:24;;;;;;;;;;;;;;;31.19;61.16;101235.75;5102523;27;69829;-35
2023/11/14 02:34:54;;;;;;;;;;;;;;;31.21;60.96;101239.06;5101450;27;66859;-34
2023/11/14 02:37:24;;;;;;;;;;;;;;;31.23;60.61;101236.97;5101421;27;69457;-34
2023/11/14 02:39:55;;;;;;;;;;;;;;;31.25;60.85;101234.88;5100881;27;65313;-34
2023/11/14 02:42:25;;;;;;;;;;;;;;;31.28;60.81;101229.03;5102961;27;68798;-34
2023/11/14 02:44:55;;;;;;;;;;;;;;;31.29;60.88;101230.72;5099981;27;66557;-34
2023/11/14 02:47:25;;;;;;;;;;;;;;;31.32;60.79;101224.84;5102121;27;69770;-34
2023/11/14 02:49:57;;;;;;;;;;;;;;;31.34;60.72;101223.59;5102792;27;65934;-34
2023/11/14 02:52:27;;;;;;;;;;;;;;;31.37;60.69;101230.47;5099920;27;69796;-33
2023/11/14 02:54:57;;;;;;;;;;;;;;;31.39;60.48;101221.06;5101328;27;66606;-34
2023/11/14 02:57:27;;;;;;;;;;;;;;;31.41;60.78;101223.59;5083864;27;69007;-33
2023/11/14 02:59:57;;;;;;;;;;;;;;;31.44;60.54;101216.91;5077547;27;66900;-35
2023/11/14 03:02:27;;;;;;;;;;;;;;;31.46;60.68;101229.19;5102158;27;70568;-34
2023/11/14 03:04:57;;;;;;;;;;;;;;;31.49;60.62;101209.78;5082808;27;65960;-34
2023/11/14 03:07:27;;;;;;;;;;;;;;;31.50;60.61;101210.59;5099590;27;70390;-33
2023/11/14 03:09:57;;;;;;;;;;;;;;;31.53;60.64;101213.72;5084250;27;66942;-34
2023/11/14 03:12:27;;;;;;;;;;;;;;;31.55;60.40;101208.91;5100988;27;70592;-34
2023/11/14 03:14:58;;;;;;;;;;;;;;;31.57;60.53;101195.97;5097885;27;67183;-34
2023/11/14 03:17:28;;;;;;;;;;;;;;;31.59;60.67;101193.03;5100862;27;70409;-34
2023/11/14 03:19:58;;;;;;;;;;;;;;;31.61;60.46;101191.75;5083216;27;65894;-34
2023/11/14 03:22:54;;;;;;;;;;;;;;;31.65;60.55;101191.31;5100701;27;71218;-34
2023/11/14 03:25:24;;;;;;;;;;;;;;;31.66;60.20;101176.72;5100350;27;66013;-35
2023/11/14 03:27:54;;;;;;;;;;;;;;;31.68;60.42;101188.16;5101137;27;70090;-34
2023/11/14 03:30:24;;;;;;;;;;;;;;;31.70;60.46;101183.38;5099596;27;66269;-35
2023/11/14 03:32:54;;;;;;;;;;;;;;;31.72;60.20;101187.53;5083213;27;70693;-34
2023/11/14 03:35:24;;;;;;;;;;;;;;;31.73;60.19;101177.50;5101736;27;65587;-33
2023/11/14 03:37:55;;;;;;;;;;;;;;;31.76;60.25;101172.50;5082854;27;70722;-36
2023/11/14 03:40:25;;;;;;;;;;;;;;;31.78;60.22;101172.25;5094267;27;65967;-35
2023/11/14 03:42:55;;;;;;;;;;;;;;;31.79;60.27;101163.91;5100433;27;70468;-34
2023/11/14 03:45:25;;;;;;;;;;;;;;;31.81;60.17;101169.09;5083185;27;67053;-34
2023/11/14 03:47:55;;;;;;;;;;;;;;;31.85;60.18;101170.34;5100579;27;70727;-34
2023/11/14 03:50:26;;;;;;;;;;;;;;;31.86;59.87;101161.13;5101313;27;66153;-34
2023/11/14 03:52:56;;;;;;;;;;;;;;;31.90;59.96;101162.38;5080429;27;69519;-33
2023/11/14 03:55:26;;;;;;;;;;;;;;;31.91;60.13;101166.78;5100338;27;65703;-35
2023/11/14 03:57:56;;;;;;;;;;;;;;;31.94;60.05;101151.94;5101058;27;70886;-37
2023/11/14 04:00:26;;;;;;;;;;;;;;;31.97;59.87;101148.78;5100608;27;66986;-35
2023/11/14 04:02:56;;;;;;;;;;;;;;;32.00;59.71;101149.16;5082160;27;70682;-34
2023/11/14 04:05:26;;;;;;;;;;;;;;;32.02;59.90;101149.78;5083341;27;66968;-33
2023/11/14 04:07:56;;;;;;;;;;;;;;;32.04;59.59;101136.81;5101016;27;70622;-33
2023/11/14 04:10:27;;;;;;;;;;;;;;;32.08;59.72;101130.94;5057292;28;67082;-34
2023/11/14 04:12:59;;;;;;;;;;;;;;;32.10;59.55;101123.41;5096087;27;70900;-35
2023/11/14 04:15:30;;;;;;;;;;;;;;;32.13;59.60;101122.97;5082961;27;65684;-35
2023/11/14 04:18:00;;;;;;;;;;;;;;;32.14;59.68;101113.75;5064979;27;70481;-34
2023/11/14 04:20:30;;;;;;;;;;;;;;;32.17;59.69;101118.75;5082895;27;65875;-34
2023/11/14 04:23:00;;;;;;;;;;;;;;;32.19;59.52;101116.66;5083241;27;69884;-34
2023/11/14 04:25:30;;;;;;;;;;;;;;;32.21;59.60;101109.94;5081735;27;67068;-35
2023/11/14 04:28:00;;;;;;;;;;;;;;;32.23;59.39;101096.13;5101249;27;70604;-36
2023/11/14 04:30:30;;;;;;;;;;;;;;;32.25;59.37;101089.41;5086573;27;67075;-33
2023/11/14 04:32:59;;;;;;;;;;;;;;;32.27;59.33;101103.59;5084534;27;70709;-35
2023/11/14 04:35:30;;;;;;;;;;;;;;;32.30;59.60;101086.03;5105133;27;65932;-35
2023/11/14 04:37:59;;;;;;;;;;;;;;;32.32;59.38;101089.38;5103429;27;69561;-35
2023/11/14 04:40:29;;;;;;;;;;;;;;;32.35;59.21;101077.22;5085124;27;65513;-34
2023/11/14 04:42:59;;;;;;;;;;;;;;;32.37;59.04;101064.25;5104553;27;69754;-34
2023/11/14 04:45:29;;;;;;;;;;;;;;;32.39;58.94;101065.69;5085173;27;66838;-36
2023/11/14 04:47:59;;;;;;;;;;;;;;;32.40;59.03;101059.22;5100751;27;69814;-34
2023/11/14 04:50:30;;;;;;;;;;;;;;;32.43;59.00;101061.47;5085048;27;66661;-37
2023/11/14 04:53:00;;;;;;;;;;;;;;;32.45;58.87;101051.19;5103926;27;70210;-34
2023/11/14 04:55:30;;;;;;;;;;;;;;;32.47;58.90;101043.69;5102069;27;66923;-35
2023/11/14 04:57:59;;;;;;;;;;;;;;;32.51;58.80;101043.22;5096462;27;70186;-35
2023/11/14 05:00:29;;;;;;;;;;;;;;;32.53;58.81;101035.69;5101770;27;65698;-34
2023/11/14 05:03:05;;;;;;;;;;;;;;;32.54;59.03;101043.63;5102147;27;69739;-35
2023/11/14 05:05:35;;;;;;;;;;;;;;;32.55;58.93;101028.97;5086579;27;66616;-34
2023/11/14 05:08:05;;;;;;;;;;;;;;;32.58;58.50;101027.69;5085948;27;69411;-35
2023/11/14 05:10:35;;;;;;;;;;;;;;;32.59;58.78;101013.88;5103260;27;66816;-36
2023/11/14 05:13:04;;;;;;;;;;;;;;;32.61;58.66;101008.22;5103621;27;69062;-35
2023/11/14 05:15:34;;;;;;;;;;;;;;;32.63;58.66;101014.25;5101896;27;67462;-37
2023/11/14 05:18:04;;;;;;;;;;;;;;;32.65;58.57;101002.13;5093874;27;70395;-37
2023/11/14 05:20:34;;;;;;;;;;;;;;;32.67;58.48;101004.59;5103037;27;66608;-36
2023/11/14 05:23:04;;;;;;;;;;;;;;;32.70;58.43;100993.25;5104027;27;70231;-35
2023/11/14 05:25:34;;;;;;;;;;;;;;;32.71;58.49;100984.88;5102949;27;66280;-37
2023/11/14 05:28:03;;;;;;;;;;;;;;;32.73;58.38;100968.34;5086150;27;69851;-35
2023/11/14 05:30:33;;;;;;;;;;;;;;;32.74;58.19;100967.31;5104013;27;66848;-36
2023/11/14 05:33:03;;;;;;;;;;;;;;;32.77;58.10;100968.72;5102730;27;70583;-36
2023/11/14 05:35:33;;;;;;;;;;;;;;;32.78;58.19;100957.63;5101088;27;66960;-35
2023/11/14 05:38:03;;;;;;;;;;;;;;;32.81;58.01;100956.31;5103956;27;70436;-35
2023/11/14 05:40:33;;;;;;;;;;;;;;;32.82;58.14;100958.81;5101458;27;66895;-35
2023/11/14 05:43:03;;;;;;;;;;;;;;;32.85;58.17;100942.06;5103696;27;69614;-35
2023/11/14 05:45:34;;;;;;;;;;;;;;;32.87;57.98;100930.94;5103296;27;66880;-35
2023/11/14 05:48:04;;;;;;;;;;;;;;;32.89;58.08;100931.53;5103254;27;70761;-35
2023/11/14 05:50:34;;;;;;;;;;;;;;;32.90;57.96;100925.91;5102937;27;66842;-35
2023/11/14 05:53:04;;;;;;;;;;;;;;;32.92;57.79;100912.88;5084230;27;70579;-33
2023/11/14 05:55:34;;;;;;;;;;;;;;;32.94;58.08;100905.31;5102686;27;67043;-34
2023/11/14 05:58:04;;;;;;;;;;;;;;;32.98;57.60;100904.84;5089891;27;70128;-36
2023/11/14 06:00:38;;;;;;;;;;;;;;;32.99;57.61;100906.50;5101283;27;66794;-37
2023/11/14 06:03:08;;;;;;;;;;;;;;;33.00;57.49;100917.19;5103315;27;70410;-35
2023/11/14 06:05:38;;;;;;;;;;;;;;;33.02;57.77;100909.63;5102065;27;66202;-35
2023/11/14 06:08:08;;;;;;;;;;;;;;;33.05;57.80;100905.63;5101967;27;70132;-33
2023/11/14 06:10:38;;;;;;;;;;;;;;;33.07;57.60;100895.31;5103073;27;65768;-34
2023/11/14 06:13:08;;;;;;;;;;;;;;;33.09;57.47;100898.63;5102975;27;70012;-34
2023/11/14 06:15:38;;;;;;;;;;;;;;;33.11;57.37;100886.47;5100625;27;66723;-34
2023/11/14 06:18:08;;;;;;;;;;;;;;;33.12;57.25;100881.84;5102816;27;69975;-35
2023/11/14 06:20:39;;;;;;;;;;;;;;;33.13;57.73;100867.22;5103226;27;66799;-39
2023/11/14 06:23:09;;;;;;;;;;;;;;;33.17;57.41;100860.25;5100836;27;70097;-35
2023/11/14 06:25:39;;;;;;;;;;;;;;;33.21;57.39;100866.03;5115770;27;66951;-35
2023/11/14 06:28:09;;;;;;;;;;;;;;;33.23;57.34;100867.44;5083016;27;69171;-34
2023/11/14 06:30:39;;;;;;;;;;;;;;;33.27;57.19;100857.75;5100590;27;67152;-34
2023/11/14 06:33:09;;;;;;;;;;;;;;;33.29;57.40;100847.50;5090394;27;69942;-34
2023/11/14 06:35:40;;;;;;;;;;;;;;;33.33;56.99;100842.41;5102774;27;67034;-34
2023/11/14 06:38:10;;;;;;;;;;;;;;;33.36;57.06;100842.75;5100277;27;68939;-33
2023/11/14 06:40:40;;;;;;;;;;;;;;;33.38;56.93;100829.75;5103010;27;66133;-33
2023/11/14 06:43:09;;;;;;;;;;;;;;;33.42;57.11;100821.09;5102076;27;70767;-34
2023/11/14 06:45:39;;;;;;;;;;;;;;;33.47;56.74;100813.06;5101772;27;66753;-34
2023/11/14 06:48:09;;;;;;;;;;;;;;;33.49;56.96;100813.63;5103056;27;69722;-34
2023/11/14 06:50:40;;;;;;;;;;;;;;;33.53;56.50;100817.56;5102000;27;67074;-33
2023/11/14 06:53:13;;;;;;;;;;;;;;;33.56;56.74;100817.06;5095984;27;69701;-34
2023/11/14 06:55:43;;;;;;;;;;;;;;;33.57;56.76;100808.69;5102073;27;66642;-35
2023/11/14 06:58:13;;;;;;;;;;;;;;;33.61;56.36;100803.59;5102143;27;70898;-34
2023/11/14 07:00:43;;;;;;;;;;;;;;;33.64;56.38;100819.41;5101016;27;66395;-35
2023/11/14 07:03:13;;;;;;;;;;;;;;;33.66;56.38;100844.50;5096317;27;70288;-34
2023/11/14 07:05:43;;;;;;;;;;;;;;;33.69;56.64;100887.53;5093693;27;66593;-34
2023/11/14 07:08:13;;;;;;;;;;;;;;;33.71;56.07;100899.00;5100719;27;69419;-33
2023/11/14 07:10:43;;;;;;;;;;;;;;;33.74;56.03;100895.81;5102350;27;65585;-34
2023/11/14 07:13:12;;;;;;;;;;;;;;;33.75;56.16;100886.56;5101860;27;70627;-34
2023/11/14 07:15:42;;;;;;;;;;;;;;;33.77;56.40;100884.44;5100982;27;66969;-35
2023/11/14 07:18:12;;;;;;;;;;;;;;;33.81;57.01;100887.50;5102851;27;70153;-34
2023/11/14 07:20:41;;;;;;;;;;;;;;;33.84;57.26;100861.72;5102036;27;65906;-35
2023/11/14 07:23:11;;;;;;;;;;;;;;;33.84;57.85;100856.28;5101105;27;69088;-34
2023/11/14 07:25:43;;;;;;;;;;;;;;;33.85;58.31;100847.03;5102620;27;66103;-35
2023/11/14 07:28:13;;;;;;;;;;;;;;;33.84;58.91;100834.50;5091194;27;69678;-35
2023/11/14 07:30:43;;;;;;;;;;;;;;;33.86;58.78;100829.66;5100990;27;65861;-34
2023/11/14 07:33:13;;;;;;;;;;;;;;;33.85;59.12;100828.84;5102360;27;70240;-35
2023/11/14 07:35:44;;;;;;;;;;;;;;;33.84;58.94;100829.88;5101412;27;66526;-34
2023/11/14 07:38:13;;;;;;;;;;;;;;;33.85;58.63;100836.16;5100944;27;70339;-34
2023/11/14 07:40:43;;;;;;;;;;;;;;;33.85;58.96;100847.03;5102183;27;66639;-33
2023/11/14 07:43:14;;;;;;;;;;;;;;;33.85;59.07;100855.19;5101756;27;69781;-34
2023/11/14 07:45:44;;;;;;;;;;;;;;;33.84;59.22;100856.28;5100557;27;66684;-33
2023/11/14 07:48:14;;;;;;;;;;;;;;;33.83;59.02;100862.78;5101207;27;70433;-34
2023/11/14 07:50:44;;;;;;;;;;;;;;;33.80;59.04;100856.75;5082531;27;66145;-34
2023/11/14 07:53:16;;;;;;;;;;;;;;;33.78;59.00;100856.16;5101145;27;70527;-34
2023/11/14 07:55:45;;;;;;;;;;;;;;;33.77;58.77;100856.41;5088593;27;65532;-34
2023/11/14 07:58:15;;;;;;;;;;;;;;;33.73;59.04;100853.34;5101438;27;69841;-33
2023/11/14 08:00:45;;;;;;;;;;;;;;;33.73;58.94;100860.66;5101042;27;67229;-34
2023/11/14 08:03:15;;;;;;;;;;;;;;;33.71;59.18;100863.66;5096525;27;70660;-34
2023/11/14 08:05:45;;;;;;;;;;;;;;;33.69;59.33;100860.34;5100494;27;65052;-33
2023/11/14 08:08:17;;;;;;;;;;;;;;;33.68;59.18;100869.53;5101408;27;69115;-34
2023/11/14 08:10:47;;;;;;;;;;;;;;;33.66;59.16;100868.16;5099986;27;66887;-34
2023/11/14 08:13:17;;;;;;;;;;;;;;;33.65;59.45;100861.03;5099532;27;70323;-36
2023/11/14 08:15:47;;;;;;;;;;;;;;;33.63;59.32;100858.59;5101212;27;66322;-36
2023/11/14 08:18:17;;;;;;;;;;;;;;;33.59;59.75;100852.78;5101049;27;69414;-35
2023/11/14 08:20:47;;;;;;;;;;;;;;;33.59;59.71;100849.22;5099523;27;66760;-33
2023/11/14 08:23:18;;;;;;;;;;;;;;;33.57;59.83;100835.03;5101268;27;69752;-36
2023/11/14 08:25:48;;;;;;;;;;;;;;;33.55;59.88;100837.19;5101073;27;66158;-35
2023/11/14 08:28:17;;;;;;;;;;;;;;;33.53;59.83;100823.81;5099595;27;71176;-34
2023/11/14 08:30:47;;;;;;;;;;;;;;;33.53;59.75;100820.28;5100436;27;66830;-35
2023/11/14 08:33:17;;;;;;;;;;;;;;;33.53;59.76;100814.84;5100267;27;69861;-35
2023/11/14 08:35:47;;;;;;;;;;;;;;;33.49;59.91;100811.75;5076209;27;66096;-33
2023/11/14 08:38:16;;;;;;;;;;;;;;;33.50;59.94;100812.56;5101079;27;69829;-34
2023/11/14 08:40:49;;;;;;;;;;;;;;;33.47;59.79;100803.00;5082105;27;66470;-34
2023/11/14 08:43:20;;;;;;;;;;;;;;;33.46;60.22;100798.63;5099518;27;70215;-34
2023/11/14 08:45:49;;;;;;;;;;;;;;;33.43;59.82;100788.22;5099928;27;68253;-34
2023/11/14 08:48:19;;;;;;;;;;;;;;;33.41;60.35;100781.38;5092131;27;70743;-34
2023/11/14 08:50:49;;;;;;;;;;;;;;;33.41;60.30;100781.38;5099035;27;66441;-34
2023/11/14 08:53:22;;;;;;;;;;;;;;;33.38;60.34;100772.63;5099596;27;70337;-34
2023/11/14 08:55:53;;;;;;;;;;;;;;;33.37;60.69;100770.16;5101008;27;66340;-34
2023/11/14 08:58:23;;;;;;;;;;;;;;;33.34;60.63;100771.44;5091335;27;70251;-34
2023/11/14 09:00:55;;;;;;;;;;;;;;;33.33;60.50;100772.53;5100071;27;66055;-34
2023/11/14 09:03:25;;;;;;;;;;;;;;;33.32;60.59;100775.47;5100685;27;70380;-35
2023/11/14 09:05:54;;;;;;;;;;;;;;;33.30;60.65;100781.16;5099062;27;66274;-34
2023/11/14 09:08:25;;;;;;;;;;;;;;;33.28;60.97;100782.47;5100411;27;69258;-34
2023/11/14 09:10:55;;;;;;;;;;;;;;;33.25;60.80;100783.75;5096777;27;66743;-33
2023/11/14 09:13:25;;;;;;;;;;;;;;;33.24;60.95;100798.44;5097564;27;69941;-34
2023/11/14 09:15:54;;;;;;;;;;;;;;;33.05;62.95;100810.50;5100593;27;66567;-34
2023/11/14 09:18:25;;;;;;;;;;;;;;;32.89;64.64;100810.09;5092753;27;69124;-35
2023/11/14 09:20:55;;;;;;;;;;;;;;;32.77;66.25;100814.72;5085379;27;66765;-36
2023/11/14 09:23:25;;;;;;;;;;;;;;;32.72;66.87;100818.13;5087745;27;69755;-35
2023/11/14 09:25:55;;;;;;;;;;;;;;;32.70;67.20;100828.38;5094220;27;67059;-34
2023/11/14 09:28:25;;;;;;;;;;;;;;;32.68;67.39;100822.38;5095806;27;70498;-36
2023/11/14 09:30:55;;;;;;;;;;;;;;;32.66;67.84;100829.13;5093634;27;66248;-35
2023/11/14 09:33:25;;;;;;;;;;;;;;;32.63;67.88;100829.59;5094547;27;70148;-34
2023/11/14 09:35:54;;;;;;;;;;;;;;;32.57;68.61;100836.78;5085136;27;67092;-34
2023/11/14 09:38:24;;;;;;;;;;;;;;;32.60;68.34;100830.88;5094461;27;70076;-34
2023/11/14 09:40:54;;;;;;;;;;;;;;;32.65;68.39;100833.72;5102724;27;66451;-35
2023/11/14 09:43:24;;;;;;;;;;;;;;;32.66;68.69;100845.41;5091308;27;70766;-34
2023/11/14 09:45:56;;;;;;;;;;;;;;;32.58;68.80;100843.03;5075862;27;66201;-34
2023/11/14 09:48:27;;;;;;;;;;;;;;;32.56;69.06;100845.97;5095341;27;69680;-35
2023/11/14 09:50:56;;;;;;;;;;;;;;;32.53;69.01;100857.28;5094785;27;67563;-35
2023/11/14 09:53:29;;;;;;;;;;;;;;;32.53;69.27;100862.72;5098343;27;69794;-36
2023/11/14 09:55:59;;;;;;;;;;;;;;;32.38;68.88;100846.84;5092073;27;65606;-34
2023/11/14 09:58:29;;;;;;;;;;;;;;;32.55;69.11;100876.09;5091793;27;69651;-34
2023/11/14 10:01:00;;;;;;;;;;;;;;;32.53;69.48;100872.75;5089791;27;66888;-34
2023/11/14 10:03:31;;;;;;;;;;;;;;;32.52;69.56;100881.97;5091015;27;70470;-35
2023/11/14 10:06:02;;;;;;;;;;;;;;;32.48;69.52;100881.59;5074661;27;67383;-35
2023/11/14 10:08:33;;;;;;;;;;;;;;;32.52;69.00;100877.38;5088039;27;70416;-35
2023/11/14 10:11:13;;;;;;;;;;;;;;;32.46;69.36;100884.56;5089652;27;67112;-37
2023/11/14 10:13:42;;;;;;;;;;;;;;;32.43;69.92;100895.00;5087491;27;69896;-37
2023/11/14 10:16:19;;;;;;;;;;;;;;;32.39;69.67;100889.22;5092655;27;66673;-34
2023/11/14 10:18:51;;;;;;;;;;;;;;;32.41;69.32;100891.72;5071599;27;69983;-35
2023/11/14 10:21:29;;;;;;;;;;;;;;;32.40;69.65;100890.03;5087337;27;66834;-35
2023/11/14 10:24:10;;;;;;;;;;;;;;;32.38;69.74;100898.41;5086380;27;69802;-35
2023/11/14 10:26:51;;;;;;;;;;;;;;;32.38;69.44;100898.41;5097259;27;66437;-36
2023/11/14 10:29:22;;;;;;;;;;;;;;;32.36;69.84;100903.25;5075417;27;69073;-35
2023/11/14 10:31:54;;;;;;;;;;;;;;;32.37;69.65;100893.22;5081695;27;65582;-35
2023/11/14 10:34:28;;;;;;;;;;;;;;;32.44;69.22;100888.53;5085777;27;70062;-34
2023/11/14 10:36:58;;;;;;;;;;;;;;;32.45;69.49;100877.41;5078329;27;66594;-36
2023/11/14 10:39:29;;;;;;;;;;;;;;;32.53;68.52;100872.75;5094113;27;71279;-34
2023/11/14 10:42:06;;;;;;;;;;;;;;;32.57;68.64;100876.66;5055848;27;66169;-34
2023/11/14 10:44:38;;;;;;;;;;;;;;;32.61;68.94;100888.72;5093900;27;70241;-36
2023/11/14 10:47:09;;;;;;;;;;;;;;;32.62;68.81;100898.50;5090223;27;66859;-37
2023/11/14 10:49:45;;;;;;;;;;;;;;;32.63;68.14;100897.47;5084746;27;70129;-35
2023/11/14 10:52:15;;;;;;;;;;;;;;;32.62;68.08;100903.94;5095440;27;66550;-35
2023/11/14 10:54:47;;;;;;;;;;;;;;;32.65;67.42;100906.19;5083477;27;70696;-35
2023/11/14 10:57:19;;;;;;;;;;;;;;;32.66;67.90;100910.59;5092848;27;66529;-36
2023/11/14 10:59:57;;;;;;;;;;;;;;;32.68;67.10;100917.44;5092014;27;70303;-35
2023/11/14 11:02:32;;;;;;;;;;;;;;;32.71;67.91;100918.88;5090963;27;66510;-38
2023/11/14 11:05:03;;;;;;;;;;;;;;;32.72;67.68;100915.09;5056059;27;69810;-37
2023/11/14 11:07:33;;;;;;;;;;;;;;;32.66;68.83;100916.84;5073402;27;66133;-36
2023/11/14 11:10:04;;;;;;;;;;;;;;;32.61;69.31;100933.00;5073657;27;70558;-35
2023/11/14 11:12:35;;;;;;;;;;;;;;;32.65;68.36;100926.06;5095560;27;66630;-35
2023/11/14 11:15:09;;;;;;;;;;;;;;;32.70;67.51;100933.50;5092775;27;69989;-34
2023/11/14 11:17:45;;;;;;;;;;;;;;;32.73;67.19;100938.47;5099930;27;66767;-37
2023/11/14 11:20:22;;;;;;;;;;;;;;;32.76;66.95;100942.59;5070868;27;70138;-36
2023/11/14 11:23:11;;;;;;;;;;;;;;;32.76;66.78;100948.03;5085321;27;65582;-35
2023/11/14 11:25:48;;;;;;;;;;;;;;;32.77;66.48;100953.25;5094232;27;69991;-38
2023/11/14 11:28:21;;;;;;;;;;;;;;;32.76;66.28;100948.03;5094839;27;66282;-34
2023/11/14 11:31:11;;;;;;;;;;;;;;;32.77;66.13;100955.97;5094203;27;69984;-35
2023/11/14 11:33:42;;;;;;;;;;;;;;;32.77;66.18;100955.97;5091619;27;67181;-34
2023/11/14 11:36:20;;;;;;;;;;;;;;;32.77;66.21;100961.41;5095480;27;70583;-35
2023/11/14 11:39:04;;;;;;;;;;;;;;;32.77;66.35;100966.84;5085890;27;65994;-36
2023/11/14 11:41:34;;;;;;;;;;;;;;;32.77;66.40;100982.31;5081643;27;69572;-37
2023/11/14 11:44:06;;;;;;;;;;;;;;;32.78;66.18;100995.66;5088974;27;66069;-35
2023/11/14 11:46:40;;;;;;;;;;;;;;;32.78;66.33;100978.53;5099865;27;70151;-36
2023/11/14 11:49:10;;;;;;;;;;;;;;;32.77;65.94;100991.28;5098456;27;66783;-35
2023/11/14 11:51:43;;;;;;;;;;;;;;;32.77;66.22;100996.72;5099106;27;69898;-34
2023/11/14 11:54:25;;;;;;;;;;;;;;;32.76;66.10;101003.19;5101622;27;66748;-34
2023/11/14 11:57:01;;;;;;;;;;;;;;;32.77;66.18;101009.47;5100176;27;68951;-34
2023/11/14 11:59:40;;;;;;;;;;;;;;;32.77;66.20;101017.63;5093650;27;66974;-34
2023/11/14 12:02:10;;;;;;;;;;;;;;;32.76;65.96;101010.53;5100528;27;70030;-34
2023/11/14 12:04:42;;;;;;;;;;;;;;;32.75;66.17;101017.84;5099832;27;67109;-35
2023/11/14 12:07:12;;;;;;;;;;;;;;;32.75;66.29;101023.28;5083614;27;70279;-37
2023/11/14 12:09:42;;;;;;;;;;;;;;;32.74;66.07;101027.06;5082770;27;66711;-35
2023/11/14 12:12:14;;;;;;;;;;;;;;;32.74;66.55;101032.50;5100620;27;70950;-35
2023/11/14 12:14:45;;;;;;;;;;;;;;;32.73;66.66;101030.81;5100412;27;66636;-33
2023/11/14 12:17:15;;;;;;;;;;;;;;;32.70;66.78;101034.81;5098807;27;70351;-38
2023/11/14 12:19:46;;;;;;;;;;;;;;;32.71;66.70;101032.97;5100745;27;65533;-37
2023/11/14 12:22:17;;;;;;;;;;;;;;;32.70;66.70;101047.56;5101215;27;69740;-36
2023/11/14 12:24:50;;;;;;;;;;;;;;;32.69;66.64;101051.38;5098479;27;66605;-35
2023/11/14 12:27:19;;;;;;;;;;;;;;;32.68;66.72;101049.69;5100865;27;70743;-35
2023/11/14 12:30:04;;;;;;;;;;;;;;;32.68;66.80;101060.56;5099337;27;66030;-34
2023/11/14 12:32:35;;;;;;;;;;;;;;;32.67;67.00;101053.47;5099155;27;69852;-38
2023/11/14 12:35:05;;;;;;;;;;;;;;;32.66;67.14;101049.09;5090975;27;65251;-34
2023/11/14 12:37:35;;;;;;;;;;;;;;;32.66;67.29;101046.41;5099188;27;69187;-34
2023/11/14 12:40:12;;;;;;;;;;;;;;;32.53;69.66;101051.97;5100113;27;66615;-35
2023/11/14 12:42:42;;;;;;;;;;;;;;;32.32;71.00;101051.38;5097132;27;69723;-35
2023/11/14 12:45:12;;;;;;;;;;;;;;;32.21;71.43;101049.41;5095202;27;65828;-37
2023/11/14 12:47:43;;;;;;;;;;;;;;;32.10;71.98;101044.72;5100584;27;70528;-35
2023/11/14 12:50:21;;;;;;;;;;;;;;;32.04;72.44;101050.00;5100830;27;66405;-35
2023/11/14 12:52:54;;;;;;;;;;;;;;;32.00;72.54;101047.94;5093514;27;69839;-34
2023/11/14 12:55:23;;;;;;;;;;;;;;;31.96;72.89;101050.28;5099135;27;66816;-35